Time;durP1;ratioP1;P1;durP2;ratioP2;P2;SDS_P1;SDS_P2;PMS_P1;PMS_P2;Temp;Humidity;BMP_temperature;BMP_pressure;BME280_temperature;BME280_humidity;BME280_pressure;Samples;Min_cycle;Max_cycle;Signal;HPM_P1;HPM_P2
2022/03/12 00:00:07;;;;;;;0.77;0.77;;;;;;;-6.41;43.11;99800.81;5017914;28;20050;-83
2022/03/12 00:02:39;;;;;;;0.70;0.70;;;;;;;-6.63;43.43;99804.25;4999293;28;20140;-81
2022/03/12 00:05:08;;;;;;;0.70;0.70;;;;;;;-6.76;44.08;99806.09;5015526;28;20050;-81
2022/03/12 00:07:38;;;;;;;0.70;0.70;;;;;;;-6.79;44.19;99807.16;5014732;28;20050;-82
2022/03/12 00:10:06;;;;;;;0.60;0.60;;;;;;;-6.75;44.07;99805.19;5015150;28;20357;-82
2022/03/12 00:12:37;;;;;;;0.63;0.63;;;;;;;-6.83;44.58;99797.88;5015273;28;20046;-83
2022/03/12 00:15:10;;;;;;;0.82;0.82;;;;;;;-6.84;44.83;99800.59;5015106;28;20076;-81
2022/03/12 00:17:39;;;;;;;0.90;0.90;;;;;;;-6.89;45.08;99805.34;4981567;28;20050;-82
2022/03/12 00:20:10;;;;;;;0.70;0.70;;;;;;;-6.97;45.26;99803.28;5014932;28;20050;-82
2022/03/12 00:22:47;;;;;;;0.77;0.77;;;;;;;-7.02;45.29;99798.38;4981394;28;20108;-82
2022/03/12 00:25:18;;;;;;;0.90;0.90;;;;;;;-7.05;45.48;99801.22;5015028;28;20049;-82
2022/03/12 00:27:45;;;;;;;0.60;0.60;;;;;;;-7.12;46.17;99807.03;5014511;28;20042;-82
2022/03/12 00:30:18;;;;;;;0.57;0.57;;;;;;;-7.17;46.07;99804.75;4996994;28;20115;-82
2022/03/12 00:32:47;;;;;;;0.85;0.85;;;;;;;-7.26;46.26;99806.28;5014621;28;20081;-82
2022/03/12 00:35:16;;;;;;;0.80;0.80;;;;;;;-7.25;46.50;99805.31;5014521;28;20093;-80
2022/03/12 00:37:44;;;;;;;0.75;0.75;;;;;;;-7.26;46.48;99792.31;5015325;28;20104;-82
2022/03/12 00:40:13;;;;;;;0.80;0.80;;;;;;;-7.25;46.68;99796.63;5034149;28;20433;-83
2022/03/12 00:42:40;;;;;;;0.95;0.95;;;;;;;-7.27;46.81;99793.25;5034104;28;20049;-82
2022/03/12 00:45:08;;;;;;;1.00;1.00;;;;;;;-7.24;46.67;99787.78;5034528;28;20054;-82
2022/03/12 00:47:36;;;;;;;0.68;0.68;;;;;;;-7.24;46.64;99791.25;5001285;28;20133;-82
2022/03/12 00:50:04;;;;;;;1.00;1.00;;;;;;;-7.15;46.58;99796.78;5018164;28;20534;-82
2022/03/12 00:52:32;;;;;;;0.75;0.75;;;;;;;-7.06;46.34;99790.88;5036115;28;20041;-82
2022/03/12 00:55:01;;;;;;;0.90;0.90;;;;;;;-6.99;46.38;99778.94;5034938;28;20050;-82
2022/03/12 00:57:28;;;;;;;0.70;0.70;;;;;;;-6.90;46.59;99773.03;5035371;28;20107;-82
2022/03/12 00:59:57;;;;;;;0.60;0.60;;;;;;;-6.88;46.57;99767.66;5033973;28;20045;-82
2022/03/12 01:02:24;;;;;;;1.10;1.10;;;;;;;-6.85;46.80;99763.03;5033258;28;20107;-82
2022/03/12 01:04:52;;;;;;;0.70;0.70;;;;;;;-6.86;46.86;99765.75;5033565;28;20055;-81
2022/03/12 01:07:19;;;;;;;0.80;0.80;;;;;;;-6.92;47.44;99758.34;5033550;28;20045;-82
2022/03/12 01:09:47;;;;;;;1.00;1.00;;;;;;;-7.02;47.54;99763.44;5015812;28;20089;-83
2022/03/12 01:12:14;;;;;;;0.95;0.95;;;;;;;-7.03;47.76;99757.34;5015973;28;20419;-82
2022/03/12 01:14:41;;;;;;;0.90;0.90;;;;;;;-7.13;47.92;99752.91;5033847;28;20128;-83
2022/03/12 01:17:09;;;;;;;0.88;0.88;;;;;;;-7.16;48.17;99759.22;5037674;28;20079;-82
2022/03/12 01:19:39;;;;;;;0.80;0.80;;;;;;;-7.20;48.27;99758.59;5029378;28;20113;-84
2022/03/12 01:22:06;;;;;;;0.80;0.80;;;;;;;-7.21;48.42;99745.59;5023098;28;20080;-82
2022/03/12 01:24:34;;;;;;;0.88;0.88;;;;;;;-7.15;48.35;99753.00;5033427;28;20580;-83
2022/03/12 01:27:01;;;;;;;0.90;0.90;;;;;;;-7.19;48.82;99743.69;5033106;28;20495;-82
2022/03/12 01:29:28;;;;;;;0.88;0.88;;;;;;;-7.24;49.40;99741.44;5016119;28;20042;-83
2022/03/12 01:31:55;;;;;;;0.80;0.80;;;;;;;-7.15;49.34;99749.56;5015523;28;20049;-82
2022/03/12 01:34:23;;;;;;;0.68;0.68;;;;;;;-7.12;49.43;99750.16;5032427;28;20045;-82
2022/03/12 01:36:50;;;;;;;1.00;1.00;;;;;;;-7.00;49.50;99744.00;5033915;28;20103;-81
2022/03/12 01:39:17;;;;;;;0.88;0.88;;;;;;;-6.87;49.41;99741.28;5033141;28;20111;-82
2022/03/12 01:41:44;;;;;;;0.85;0.85;;;;;;;-6.76;49.37;99741.34;5015618;28;20118;-81
2022/03/12 01:44:14;;;;;;;0.77;0.77;;;;;;;-6.62;49.19;99742.91;5015435;28;20505;-82
2022/03/12 01:46:47;;;;;;;0.60;0.60;;;;;;;-6.56;49.25;99733.72;5015047;28;20095;-79
2022/03/12 01:49:19;;;;;;;0.80;0.80;;;;;;;-6.51;49.51;99728.94;5032933;28;20055;-81
2022/03/12 01:51:48;;;;;;;0.90;0.90;;;;;;;-6.55;49.68;99733.59;5032502;28;20508;-79
2022/03/12 01:54:21;;;;;;;0.73;0.73;;;;;;;-6.52;49.78;99734.34;5031430;28;20535;-79
2022/03/12 01:56:48;;;;;;;0.85;0.85;;;;;;;-6.48;49.80;99728.72;5013572;28;20045;-80
2022/03/12 01:59:16;;;;;;;0.90;0.90;;;;;;;-6.40;49.60;99730.78;5014231;28;20518;-80
2022/03/12 02:01:43;;;;;;;0.82;0.82;;;;;;;-6.32;50.00;99729.22;5031185;28;20420;-80
2022/03/12 02:04:13;;;;;;;0.90;0.90;;;;;;;-6.28;50.11;99724.53;4997938;28;20049;-82
2022/03/12 02:06:45;;;;;;;0.70;0.70;;;;;;;-6.22;50.22;99734.59;4997312;28;20144;-81
2022/03/12 02:09:14;;;;;;;0.90;0.90;;;;;;;-6.15;50.32;99730.53;5013586;28;20045;-80
2022/03/12 02:11:43;;;;;;;0.90;0.90;;;;;;;-6.12;50.07;99734.72;5014115;28;20053;-80
2022/03/12 02:14:16;;;;;;;0.65;0.65;;;;;;;-6.16;50.34;99730.63;5030012;28;20049;-78
2022/03/12 02:17:10;;;;;;;0.90;0.90;;;;;;;-6.15;50.51;99733.16;5013610;28;20061;-79
2022/03/12 02:19:40;;;;;;;0.80;0.80;;;;;;;-6.13;50.52;99733.88;5031730;28;20483;-79
2022/03/12 02:22:14;;;;;;;0.85;0.85;;;;;;;-6.11;50.39;99729.31;5031630;28;20068;-79
2022/03/12 02:24:42;;;;;;;0.77;0.77;;;;;;;-6.15;50.75;99730.53;5031355;28;20115;-80
2022/03/12 02:27:12;;;;;;;0.85;0.85;;;;;;;-6.15;50.90;99727.91;5031402;28;20316;-81
2022/03/12 02:29:43;;;;;;;0.70;0.70;;;;;;;-6.15;50.87;99727.06;5014320;28;20396;-81
2022/03/12 02:32:12;;;;;;;0.55;0.55;;;;;;;-6.12;50.74;99727.66;5014612;28;20049;-81
2022/03/12 02:34:43;;;;;;;0.73;0.73;;;;;;;-6.04;50.82;99720.97;5031369;28;20056;-80
2022/03/12 02:37:11;;;;;;;0.60;0.60;;;;;;;-6.02;50.76;99714.63;5031238;28;20475;-80
2022/03/12 02:39:39;;;;;;;0.60;0.60;;;;;;;-6.05;50.78;99704.38;5031362;28;20573;-81
2022/03/12 02:42:07;;;;;;;0.80;0.80;;;;;;;-6.00;50.91;99712.72;5014162;28;20042;-81
2022/03/12 02:44:35;;;;;;;0.60;0.60;;;;;;;-5.97;51.17;99707.22;5031448;28;20095;-80
2022/03/12 02:47:15;;;;;;;0.70;0.70;;;;;;;-5.89;51.27;99706.56;5031372;28;20061;-80
2022/03/12 02:49:53;;;;;;;0.50;0.50;;;;;;;-5.89;51.50;99715.28;5013511;28;20099;-81
2022/03/12 02:52:21;;;;;;;0.75;0.75;;;;;;;-5.92;51.51;99709.44;5013441;28;20045;-81
2022/03/12 02:54:50;;;;;;;0.70;0.70;;;;;;;-5.92;51.62;99710.28;5030900;28;20058;-81
2022/03/12 02:57:20;;;;;;;0.70;0.70;;;;;;;-5.88;51.79;99708.22;5013884;28;20607;-81
2022/03/12 02:59:48;;;;;;;0.63;0.63;;;;;;;-5.97;51.89;99709.84;5030592;28;20053;-81
2022/03/12 03:02:15;;;;;;;0.75;0.75;;;;;;;-5.94;52.03;99711.41;5030761;28;20523;-81
2022/03/12 03:04:42;;;;;;;0.60;0.60;;;;;;;-5.90;51.90;99712.78;5030649;28;20041;-81
2022/03/12 03:07:11;;;;;;;0.60;0.60;;;;;;;-5.86;52.21;99705.50;5013367;28;20424;-80
2022/03/12 03:09:38;;;;;;;0.70;0.70;;;;;;;-5.86;52.29;99695.81;5031850;28;20053;-81
2022/03/12 03:12:09;;;;;;;0.77;0.77;;;;;;;-5.84;52.60;99688.63;5031205;28;20041;-82
2022/03/12 03:14:49;;;;;;;0.73;0.73;;;;;;;-5.84;52.78;99685.19;5014372;28;20397;-81
2022/03/12 03:17:16;;;;;;;0.60;0.60;;;;;;;-5.86;52.69;99685.28;5025991;28;20112;-80
2022/03/12 03:19:45;;;;;;;0.90;0.90;;;;;;;-5.87;52.59;99686.25;5038847;28;20050;-82
2022/03/12 03:22:12;;;;;;;0.70;0.70;;;;;;;-5.89;52.49;99685.53;5003738;28;20041;-82
2022/03/12 03:24:39;;;;;;;0.85;0.85;;;;;;;-5.86;52.58;99681.84;5015901;28;20050;-81
2022/03/12 03:27:08;;;;;;;0.80;0.80;;;;;;;-5.98;52.87;99673.97;5011295;28;20042;-81
2022/03/12 03:29:36;;;;;;;0.90;0.90;;;;;;;-6.02;53.16;99682.25;5010337;28;20153;-80
2022/03/12 03:32:04;;;;;;;0.60;0.60;;;;;;;-6.00;53.03;99680.31;5010687;28;20471;-82
2022/03/12 03:34:31;;;;;;;0.70;0.70;;;;;;;-5.99;53.33;99682.00;4994120;28;20464;-81
2022/03/12 03:36:59;;;;;;;0.80;0.80;;;;;;;-6.12;53.26;99674.28;5010269;28;20144;-81
2022/03/12 03:39:26;;;;;;;0.70;0.70;;;;;;;-6.12;53.69;99677.72;5011517;28;20104;-81
2022/03/12 03:41:53;;;;;;;0.80;0.80;;;;;;;-6.14;53.83;99670.91;5011097;28;20136;-81
2022/03/12 03:44:27;;;;;;;0.65;0.65;;;;;;;-6.13;54.05;99681.31;4993201;28;20720;-82
2022/03/12 03:46:54;;;;;;;0.70;0.70;;;;;;;-6.18;54.03;99678.22;4996216;28;20460;-81
2022/03/12 03:49:24;;;;;;;0.70;0.70;;;;;;;-6.14;54.46;99678.81;5016732;28;20173;-82
2022/03/12 03:51:53;;;;;;;0.70;0.70;;;;;;;-6.09;54.71;99687.16;5000972;28;20045;-83
2022/03/12 03:54:20;;;;;;;0.82;0.82;;;;;;;-6.01;54.89;99682.13;5030004;28;20042;-82
2022/03/12 03:56:47;;;;;;;0.68;0.68;;;;;;;-5.99;54.98;99688.09;4999315;28;20057;-81
2022/03/12 03:59:14;;;;;;;0.77;0.77;;;;;;;-5.88;55.33;99695.09;5035314;28;20045;-80
2022/03/12 04:01:42;;;;;;;0.70;0.70;;;;;;;-5.75;55.22;99694.94;5035995;28;20152;-81
2022/03/12 04:04:12;;;;;;;0.52;0.52;;;;;;;-5.73;55.16;99696.50;5038937;28;20585;-81
2022/03/12 04:06:40;;;;;;;0.60;0.60;;;;;;;-5.68;55.82;99696.94;5033206;28;20432;-81
2022/03/12 04:09:07;;;;;;;0.80;0.80;;;;;;;-5.62;56.06;99702.66;5031368;28;20472;-81
2022/03/12 04:11:34;;;;;;;0.70;0.70;;;;;;;-5.56;56.18;99710.91;5031318;28;20416;-80
2022/03/12 04:14:04;;;;;;;0.80;0.80;;;;;;;-5.51;56.67;99713.19;5031100;28;20101;-81
2022/03/12 04:16:31;;;;;;;0.77;0.77;;;;;;;-5.47;56.73;99711.94;5030828;28;20050;-81
2022/03/12 04:19:00;;;;;;;0.60;0.60;;;;;;;-5.42;56.82;99701.06;5031458;28;20050;-82
2022/03/12 04:21:27;;;;;;;0.70;0.70;;;;;;;-5.32;56.40;99700.16;5013731;28;20065;-81
2022/03/12 04:23:56;;;;;;;0.70;0.70;;;;;;;-5.27;56.43;99684.84;5031020;28;20136;-81
2022/03/12 04:26:23;;;;;;;0.70;0.70;;;;;;;-5.19;56.90;99700.03;5013223;28;20092;-80
2022/03/12 04:28:51;;;;;;;0.70;0.70;;;;;;;-5.13;56.87;99701.31;5013716;28;20054;-81
2022/03/12 04:31:18;;;;;;;0.85;0.85;;;;;;;-5.11;57.27;99700.22;5031136;28;20055;-81
2022/03/12 04:33:45;;;;;;;0.70;0.70;;;;;;;-5.05;57.38;99699.69;5014784;28;20041;-82
2022/03/12 04:36:13;;;;;;;0.80;0.80;;;;;;;-5.03;57.29;99700.41;5037587;28;20056;-83
2022/03/12 04:38:40;;;;;;;0.60;0.60;;;;;;;-4.98;57.59;99715.81;5017794;28;20069;-80
2022/03/12 04:41:08;;;;;;;0.77;0.77;;;;;;;-4.94;57.48;99716.41;5035247;28;20152;-81
2022/03/12 04:43:35;;;;;;;0.60;0.60;;;;;;;-4.86;57.65;99722.72;5034394;28;20551;-82
2022/03/12 04:46:02;;;;;;;0.70;0.70;;;;;;;-4.85;57.47;99711.19;5034002;28;20053;-81
2022/03/12 04:48:30;;;;;;;0.70;0.70;;;;;;;-4.79;57.52;99717.75;5034533;28;20124;-81
2022/03/12 04:50:57;;;;;;;0.93;0.93;;;;;;;-4.83;57.63;99719.81;5034268;28;20057;-81
2022/03/12 04:53:26;;;;;;;0.85;0.85;;;;;;;-4.85;57.88;99724.38;5034325;28;20053;-81
2022/03/12 04:55:53;;;;;;;0.68;0.68;;;;;;;-4.80;57.68;99716.91;5034039;28;20067;-81
2022/03/12 04:58:21;;;;;;;0.75;0.75;;;;;;;-4.77;57.88;99722.91;5034278;28;20049;-81
2022/03/12 05:00:48;;;;;;;0.90;0.90;;;;;;;-4.75;57.86;99729.69;5033238;28;20073;-80
2022/03/12 05:03:18;;;;;;;0.70;0.70;;;;;;;-4.79;58.10;99723.84;5033801;28;20084;-82
2022/03/12 05:05:48;;;;;;;0.60;0.60;;;;;;;-4.76;58.40;99717.50;5034173;28;20052;-82
2022/03/12 05:08:20;;;;;;;0.80;0.80;;;;;;;-4.74;58.41;99727.91;5016223;28;20073;-81
2022/03/12 05:10:50;;;;;;;0.88;0.88;;;;;;;-4.73;58.30;99729.59;5016292;28;20053;-82
2022/03/12 05:13:22;;;;;;;0.80;0.80;;;;;;;-4.65;58.36;99714.78;5034131;28;20054;-81
2022/03/12 05:15:52;;;;;;;0.60;0.60;;;;;;;-4.54;58.19;99720.94;5000231;28;20041;-81
2022/03/12 05:18:20;;;;;;;0.90;0.90;;;;;;;-4.55;58.22;99706.94;5034784;28;20053;-81
2022/03/12 05:20:47;;;;;;;0.65;0.65;;;;;;;-4.49;58.08;99714.31;5016858;28;20160;-82
2022/03/12 05:23:16;;;;;;;0.70;0.70;;;;;;;-4.48;58.28;99715.13;5016635;28;20049;-82
2022/03/12 05:25:47;;;;;;;0.70;0.70;;;;;;;-4.47;58.62;99727.38;5033156;28;20144;-82
2022/03/12 05:28:17;;;;;;;0.80;0.80;;;;;;;-4.50;58.76;99722.38;5015862;28;20144;-82
2022/03/12 05:30:45;;;;;;;0.70;0.70;;;;;;;-4.40;58.91;99721.44;5033309;28;20507;-81
2022/03/12 05:33:14;;;;;;;0.80;0.80;;;;;;;-4.33;59.03;99716.47;5008058;28;20064;-81
2022/03/12 05:35:42;;;;;;;0.63;0.63;;;;;;;-4.32;59.78;99710.25;5000986;28;20077;-82
2022/03/12 05:38:11;;;;;;;0.82;0.82;;;;;;;-4.25;60.25;99713.19;4992227;28;20078;-80
2022/03/12 05:40:44;;;;;;;;;;;;;;;-4.18;60.67;99702.00;4992392;28;20487;-81
2022/03/12 05:43:17;;;;;;;0.70;0.70;;;;;;;-4.26;61.63;99701.78;4993535;28;19975;-82
2022/03/12 05:45:47;;;;;;;0.80;0.80;;;;;;;-4.27;61.83;99700.13;4993637;28;20398;-82
2022/03/12 05:48:16;;;;;;;0.55;0.55;;;;;;;-4.19;62.01;99717.94;4981873;28;20050;-81
2022/03/12 05:50:45;;;;;;;0.68;0.68;;;;;;;-4.03;62.13;99722.69;4959721;28;20073;-82
2022/03/12 05:53:16;;;;;;;0.70;0.70;;;;;;;-3.89;62.28;99724.97;4976008;28;20074;-81
2022/03/12 05:55:43;;;;;;;0.80;0.80;;;;;;;-3.69;61.89;99710.03;4993101;28;20054;-82
2022/03/12 05:58:15;;;;;;;0.57;0.57;;;;;;;-3.64;61.26;99707.81;4978633;28;20424;-81
2022/03/12 06:00:46;;;;;;;0.60;0.60;;;;;;;-3.67;61.22;99708.09;4976039;28;20054;-81
2022/03/12 06:03:13;;;;;;;0.65;0.65;;;;;;;-3.69;61.23;99715.31;4993335;28;20482;-81
2022/03/12 06:05:41;;;;;;;0.57;0.57;;;;;;;-3.60;61.35;99714.47;4978272;28;20165;-81
2022/03/12 06:08:13;;;;;;;0.60;0.60;;;;;;;-3.53;61.55;99710.31;4977549;28;20732;-81
2022/03/12 06:10:43;;;;;;;0.63;0.63;;;;;;;-3.44;61.49;99719.25;5000937;28;20069;-81
2022/03/12 06:13:10;;;;;;;0.60;0.60;;;;;;;-3.31;61.19;99711.06;4998070;28;20105;-82
2022/03/12 06:15:39;;;;;;;0.60;0.60;;;;;;;-3.37;60.55;99712.41;4982745;28;20065;-85
2022/03/12 06:18:08;;;;;;;0.60;0.60;;;;;;;-3.44;60.98;99698.13;4994902;28;20144;-82
2022/03/12 06:20:37;;;;;;;0.60;0.60;;;;;;;-3.35;60.74;99699.09;5011850;28;20160;-82
2022/03/12 06:23:05;;;;;;;0.60;0.60;;;;;;;-3.30;60.81;99704.78;5003625;28;20108;-82
2022/03/12 06:25:33;;;;;;;0.68;0.68;;;;;;;-3.24;60.59;99703.41;5015875;28;20060;-80
2022/03/12 06:28:02;;;;;;;0.63;0.63;;;;;;;-3.24;60.47;99691.06;5015204;28;20096;-82
2022/03/12 06:30:29;;;;;;;0.73;0.73;;;;;;;-3.16;60.38;99685.06;5012115;28;20050;-80
2022/03/12 06:32:57;;;;;;;0.63;0.63;;;;;;;-3.13;60.41;99701.47;5004391;28;20042;-82
2022/03/12 06:35:26;;;;;;;0.63;0.63;;;;;;;-3.21;60.68;99697.88;4993019;28;20043;-86
2022/03/12 06:37:55;;;;;;;0.60;0.60;;;;;;;-3.23;60.67;99694.53;4976950;28;20057;-86
2022/03/12 06:40:28;;;;;;;0.63;0.63;;;;;;;-3.12;60.68;99703.13;4991292;28;20070;-83
2022/03/12 06:42:59;;;;;;;0.60;0.60;;;;;;;-3.02;60.45;99697.84;4998285;28;20046;-81
2022/03/12 06:45:28;;;;;;;0.70;0.70;;;;;;;-2.99;60.28;99683.50;5008992;28;20053;-86
2022/03/12 06:47:57;;;;;;;0.50;0.50;;;;;;;-2.80;60.04;99702.00;5009672;28;20165;-83
2022/03/12 06:50:25;;;;;;;0.50;0.50;;;;;;;-2.67;59.71;99704.31;4990685;28;20092;-82
2022/03/12 06:52:53;;;;;;;0.70;0.70;;;;;;;-2.66;59.91;99698.91;4982961;28;20681;-82
2022/03/12 06:55:23;;;;;;;0.60;0.60;;;;;;;-2.73;59.82;99696.97;5000896;28;20042;-82
2022/03/12 06:57:52;;;;;;;0.50;0.50;;;;;;;-2.62;59.88;99702.09;5008509;28;20060;-82
2022/03/12 07:00:25;;;;;;;0.50;0.50;;;;;;;-2.58;59.32;99700.84;5007817;28;20042;-83
2022/03/12 07:02:52;;;;;;;0.68;0.68;;;;;;;-2.72;59.14;99706.56;4986999;28;20049;-82
2022/03/12 07:05:20;;;;;;;0.50;0.50;;;;;;;-2.64;59.28;99706.69;4989711;28;20552;-82
2022/03/12 07:07:48;;;;;;;0.73;0.73;;;;;;;-2.56;59.38;99698.03;4997549;28;20084;-82
2022/03/12 07:10:16;;;;;;;0.52;0.52;;;;;;;-2.40;59.17;99695.63;4995883;28;20065;-83
2022/03/12 07:12:45;;;;;;;0.55;0.55;;;;;;;-2.31;58.63;99697.41;5008481;28;20147;-84
2022/03/12 07:15:13;;;;;;;0.68;0.68;;;;;;;-2.38;58.66;99701.63;5008279;28;20081;-82
2022/03/12 07:17:42;;;;;;;0.60;0.60;;;;;;;-2.44;58.82;99703.00;4988211;28;20090;-85
2022/03/12 07:20:13;;;;;;;0.70;0.70;;;;;;;-2.33;58.72;99715.25;4998902;28;20050;-84
2022/03/12 07:22:41;;;;;;;0.60;0.60;;;;;;;-2.34;58.82;99707.44;4997554;28;20064;-83
2022/03/12 07:25:09;;;;;;;0.80;0.80;;;;;;;-2.22;58.83;99704.47;5007476;28;20099;-83
2022/03/12 07:27:36;;;;;;;0.52;0.52;;;;;;;-1.96;58.34;99711.72;4983767;28;20053;-86
2022/03/12 07:30:07;;;;;;;0.60;0.60;;;;;;;-1.79;58.01;99702.19;5009575;28;20050;-84
2022/03/12 07:32:36;;;;;;;0.60;0.60;;;;;;;-1.67;57.75;99705.44;5010319;28;20056;-82
2022/03/12 07:35:11;;;;;;;0.70;0.70;;;;;;;-1.58;57.21;99712.50;5009245;28;20576;-83
2022/03/12 07:37:39;;;;;;;0.70;0.70;;;;;;;-1.58;57.32;99715.13;4990381;28;20534;-82
2022/03/12 07:40:09;;;;;;;0.59;0.59;;;;;;;-1.50;57.64;99717.88;4644281;28;10001318;-82
2022/03/12 07:42:38;;;;;;;0.60;0.60;;;;;;;-1.48;57.88;99715.91;5007508;28;20499;-81
2022/03/12 07:45:08;;;;;;;0.60;0.60;;;;;;;-1.56;58.13;99721.94;4989815;28;20543;-82
2022/03/12 07:47:35;;;;;;;0.57;0.57;;;;;;;-1.76;58.47;99718.59;4990778;28;20112;-84
2022/03/12 07:50:06;;;;;;;0.60;0.60;;;;;;;-1.80;58.53;99711.09;5007703;28;20098;-82
2022/03/12 07:52:33;;;;;;;0.60;0.60;;;;;;;-1.72;58.96;99713.00;5007314;28;20073;-83
2022/03/12 07:55:00;;;;;;;0.70;0.70;;;;;;;-1.73;58.86;99712.16;5008163;28;20050;-83
2022/03/12 07:57:29;;;;;;;0.60;0.60;;;;;;;-1.80;59.02;99717.22;5012225;28;20042;-82
2022/03/12 07:59:59;;;;;;;0.80;0.80;;;;;;;-1.88;59.15;99719.75;4994153;28;20053;-82
2022/03/12 08:02:26;;;;;;;0.70;0.70;;;;;;;-2.03;59.68;99715.94;4974233;28;20370;-81
2022/03/12 08:04:53;;;;;;;0.60;0.60;;;;;;;-2.03;59.83;99721.22;5009202;28;20073;-82
2022/03/12 08:07:21;;;;;;;0.50;0.50;;;;;;;-1.91;59.57;99717.41;4995138;28;20053;-81
2022/03/12 08:09:49;;;;;;;0.60;0.60;;;;;;;-1.87;59.70;99710.84;4992078;28;20129;-81
2022/03/12 08:12:17;;;;;;;0.60;0.60;;;;;;;-1.81;59.07;99715.56;5010660;28;20049;-81
2022/03/12 08:14:45;;;;;;;0.60;0.60;;;;;;;-1.76;58.55;99723.06;5011547;28;20137;-82
2022/03/12 08:17:12;;;;;;;0.70;0.70;;;;;;;-1.82;58.66;99715.72;5011514;28;20078;-79
2022/03/12 08:19:39;;;;;;;0.60;0.60;;;;;;;-1.67;58.79;99714.22;5011634;28;20049;-82
2022/03/12 08:22:07;;;;;;;0.50;0.50;;;;;;;-1.42;58.50;99720.63;5011517;28;20119;-82
2022/03/12 08:24:34;;;;;;;0.73;0.73;;;;;;;-1.41;58.48;99730.22;5012023;28;20127;-82
2022/03/12 08:27:01;;;;;;;0.70;0.70;;;;;;;-1.48;58.73;99721.22;5012456;28;20048;-81
2022/03/12 08:29:28;;;;;;;0.50;0.50;;;;;;;-1.56;58.93;99707.91;5011266;28;20141;-82
2022/03/12 08:31:55;;;;;;;0.73;0.73;;;;;;;-1.51;58.53;99710.91;5011323;28;20399;-82
2022/03/12 08:34:23;;;;;;;0.50;0.50;;;;;;;-1.56;59.16;99715.84;5010698;28;20491;-82
2022/03/12 08:36:50;;;;;;;0.55;0.55;;;;;;;-1.55;58.75;99722.78;5009486;28;20046;-82
2022/03/12 08:39:17;;;;;;;0.70;0.70;;;;;;;-1.76;58.93;99723.06;4992918;28;20457;-82
2022/03/12 08:41:45;;;;;;;0.60;0.60;;;;;;;-1.73;59.17;99725.41;5010348;28;20068;-81
2022/03/12 08:44:13;;;;;;;0.80;0.80;;;;;;;-1.54;59.22;99724.47;5010791;28;20057;-83
2022/03/12 08:46:42;;;;;;;0.80;0.80;;;;;;;-1.52;59.34;99725.13;4993337;28;20053;-82
2022/03/12 08:49:11;;;;;;;0.70;0.70;;;;;;;-1.56;59.40;99719.31;5011349;28;20085;-84
2022/03/12 08:51:39;;;;;;;0.50;0.50;;;;;;;-1.62;59.45;99719.06;4994252;28;20046;-82
2022/03/12 08:54:07;;;;;;;0.70;0.70;;;;;;;-1.62;59.27;99729.66;4993198;28;20537;-82
2022/03/12 08:56:38;;;;;;;0.70;0.70;;;;;;;-1.65;59.62;99725.47;4993452;28;20487;-83
2022/03/12 08:59:05;;;;;;;0.60;0.60;;;;;;;-1.65;59.62;99728.13;4993592;28;20050;-87
2022/03/12 09:01:33;;;;;;;0.70;0.70;;;;;;;-1.56;59.47;99735.19;5010563;28;20312;-84
2022/03/12 09:04:02;;;;;;;0.70;0.70;;;;;;;-1.42;59.33;99738.31;5010919;28;20137;-84
2022/03/12 09:06:32;;;;;;;0.65;0.65;;;;;;;-1.39;59.05;99730.09;5011285;28;20108;-83
2022/03/12 09:08:59;;;;;;;0.70;0.70;;;;;;;-1.40;58.97;99729.22;5011698;28;20046;-83
2022/03/12 09:11:26;;;;;;;0.73;0.73;;;;;;;-1.44;59.48;99734.97;4993373;28;20110;-84
2022/03/12 09:13:54;;;;;;;0.80;0.80;;;;;;;-1.49;59.34;99735.44;4992956;28;20479;-83
2022/03/12 09:16:23;;;;;;;0.55;0.55;;;;;;;-1.50;59.39;99728.47;4992521;28;20053;-82
2022/03/12 09:18:51;;;;;;;0.57;0.57;;;;;;;-1.43;59.24;99739.31;4993206;28;20497;-83
2022/03/12 09:21:18;;;;;;;0.60;0.60;;;;;;;-1.43;59.19;99729.53;5009739;28;20049;-81
2022/03/12 09:23:45;;;;;;;0.77;0.77;;;;;;;-1.48;59.46;99731.78;5009177;28;20420;-82
2022/03/12 09:26:14;;;;;;;0.60;0.60;;;;;;;-1.54;59.28;99729.75;5010552;28;20131;-85
2022/03/12 09:28:41;;;;;;;0.55;0.55;;;;;;;-1.64;59.23;99740.41;5010534;28;20104;-83
2022/03/12 09:31:09;;;;;;;0.52;0.52;;;;;;;-1.59;59.05;99730.19;4993020;28;20060;-84
2022/03/12 09:33:38;;;;;;;0.70;0.70;;;;;;;-1.58;59.57;99742.44;4993247;28;20073;-83
2022/03/12 09:36:05;;;;;;;0.70;0.70;;;;;;;-1.53;59.64;99747.28;4993033;28;20515;-82
2022/03/12 09:38:32;;;;;;;0.50;0.50;;;;;;;-1.43;59.59;99750.72;5010351;28;20046;-82
2022/03/12 09:41:01;;;;;;;0.70;0.70;;;;;;;-1.44;59.37;99749.06;5010316;28;20472;-84
2022/03/12 09:43:29;;;;;;;0.50;0.50;;;;;;;-1.60;60.02;99735.63;5015273;28;20504;-85
2022/03/12 09:45:57;;;;;;;0.68;0.68;;;;;;;-1.51;59.76;99748.00;4980136;28;20531;-83
2022/03/12 09:48:24;;;;;;;0.60;0.60;;;;;;;-1.40;59.57;99755.72;4996659;28;20112;-83
2022/03/12 09:50:51;;;;;;;0.70;0.70;;;;;;;-1.40;59.47;99739.81;4980020;28;20050;-84
2022/03/12 09:53:18;;;;;;;0.40;0.40;;;;;;;-1.31;59.46;99752.19;4981014;28;20049;-84
2022/03/12 09:55:45;;;;;;;0.60;0.60;;;;;;;-1.38;59.50;99758.22;4997392;28;20204;-84
2022/03/12 09:58:13;;;;;;;0.68;0.68;;;;;;;-1.44;59.50;99749.06;5015487;28;20129;-85
2022/03/12 10:00:40;;;;;;;0.75;0.75;;;;;;;-1.39;59.47;99751.28;4996476;28;20492;-83
2022/03/12 10:03:08;;;;;;;0.63;0.63;;;;;;;-1.36;59.47;99759.72;5014128;28;20053;-83
2022/03/12 10:05:35;;;;;;;0.73;0.73;;;;;;;-1.38;59.67;99760.88;5012584;28;20409;-82
2022/03/12 10:08:02;;;;;;;0.52;0.52;;;;;;;-1.37;59.57;99768.66;4995816;28;20088;-83
2022/03/12 10:10:31;;;;;;;0.70;0.70;;;;;;;-1.48;59.22;99762.75;5012010;28;20801;-85
2022/03/12 10:12:58;;;;;;;0.50;0.50;;;;;;;-1.69;59.33;99763.84;5013608;28;20057;-84
2022/03/12 10:15:25;;;;;;;0.60;0.60;;;;;;;-1.78;60.06;99757.59;4979876;28;20092;-84
2022/03/12 10:17:53;;;;;;;0.50;0.50;;;;;;;-1.65;60.13;99767.00;5013259;28;20052;-87
2022/03/12 10:20:23;;;;;;;0.60;0.60;;;;;;;-1.66;59.61;99750.28;5020637;28;20046;-88
2022/03/12 10:22:54;;;;;;;0.60;0.60;;;;;;;-1.61;59.47;99749.84;4981164;28;20452;-84
2022/03/12 10:25:22;;;;;;;0.70;0.70;;;;;;;-1.63;59.82;99754.47;5013225;28;20057;-88
2022/03/12 10:27:50;;;;;;;0.57;0.57;;;;;;;-1.46;59.42;99755.50;5011576;28;20073;-82
2022/03/12 10:30:17;;;;;;;0.50;0.50;;;;;;;-1.42;59.58;99760.34;4982710;28;20104;-81
2022/03/12 10:32:49;;;;;;;0.70;0.70;;;;;;;-1.38;59.24;99761.69;4989974;28;20069;-82
2022/03/12 10:35:19;;;;;;;0.50;0.50;;;;;;;-1.28;59.22;99758.97;5003005;28;20050;-83
2022/03/12 10:37:48;;;;;;;0.80;0.80;;;;;;;-1.15;58.86;99758.63;4993102;28;20057;-84
2022/03/12 10:40:21;;;;;;;0.80;0.80;;;;;;;-1.08;58.60;99759.69;5010501;28;20516;-83
2022/03/12 10:42:57;;;;;;;0.65;0.65;;;;;;;-1.09;58.43;99763.28;4998426;28;20105;-83
2022/03/12 10:45:42;;;;;;;0.60;0.60;;;;;;;-1.07;58.47;99764.00;5021685;28;20092;-82
2022/03/12 10:48:10;;;;;;;0.60;0.60;;;;;;;-1.01;58.29;99763.41;5017841;28;20364;-81
2022/03/12 10:50:43;;;;;;;0.50;0.50;;;;;;;-1.01;58.06;99770.50;5011366;28;20111;-82
2022/03/12 10:53:11;;;;;;;0.70;0.70;;;;;;;-1.01;57.83;99760.75;4992928;28;20050;-82
2022/03/12 10:55:41;;;;;;;0.60;0.60;;;;;;;-0.93;58.19;99763.47;5007677;28;20805;-81
2022/03/12 10:58:12;;;;;;;0.60;0.60;;;;;;;-1.01;57.87;99760.75;4997079;28;20081;-80
2022/03/12 11:00:48;;;;;;;0.73;0.73;;;;;;;-1.08;58.31;99772.94;5003550;28;20386;-81
2022/03/12 11:03:20;;;;;;;0.70;0.70;;;;;;;-1.07;58.53;99766.63;5000301;28;20108;-81
2022/03/12 11:05:49;;;;;;;0.70;0.70;;;;;;;-1.13;58.31;99778.69;5009637;28;20164;-80
2022/03/12 11:08:21;;;;;;;0.80;0.80;;;;;;;-1.18;58.54;99774.81;5011762;28;20045;-81
2022/03/12 11:10:59;;;;;;;0.80;0.80;;;;;;;-1.07;58.49;99777.22;5011910;28;20041;-81
2022/03/12 11:13:40;;;;;;;0.68;0.68;;;;;;;-1.01;58.20;99776.66;4992225;28;20504;-82
2022/03/12 11:16:32;;;;;;;0.65;0.65;;;;;;;-1.00;57.59;99774.81;5011046;28;20049;-82
2022/03/12 11:19:07;;;;;;;0.60;0.60;;;;;;;-1.11;57.68;99778.53;5011840;28;20054;-81
2022/03/12 11:21:43;;;;;;;0.52;0.52;;;;;;;-1.16;57.98;99780.81;5011046;28;20116;-82
2022/03/12 11:24:15;;;;;;;0.85;0.85;;;;;;;-1.09;58.34;99781.84;5001863;28;20053;-82
2022/03/12 11:26:51;;;;;;;0.70;0.70;;;;;;;-1.04;58.36;99786.69;5011398;28;20046;-81
2022/03/12 11:29:18;;;;;;;;;;;;;;;-1.13;58.26;99788.44;4989522;28;20103;-81
2022/03/12 11:31:48;;;;;;;0.57;0.57;;;;;;;-1.08;58.21;99780.06;5001797;28;19926;-81
2022/03/12 11:34:22;;;;;;;0.77;0.77;;;;;;;-1.18;58.08;99783.59;4995653;28;20050;-81
2022/03/12 11:36:56;;;;;;;0.70;0.70;;;;;;;-1.36;58.45;99778.28;4992905;28;20420;-81
2022/03/12 11:39:29;;;;;;;0.60;0.60;;;;;;;-1.32;58.93;99778.78;5005593;28;20061;-81
2022/03/12 11:42:11;;;;;;;0.70;0.70;;;;;;;-1.16;58.66;99786.09;5001429;28;20124;-81